Hauptseite
METAR-TAF:

METAR-TAF

Flughäfen :

Alice Springs, Australien

Flughafen Alice Springs

Breite: 23-48S, Länge: 133-53E, Höhe: 545 m

Beobachtung

Neuester Wetterbericht von vor 27 Minuten, um 02:00 UTC
Wind 10 kt aus Ost/Nordost
Temperatur 29°C
Luftfeuchtigkeit 10%
Luftdruck 1018 hPa
Sichtweite 10 km oder mehr

METAR: YBAS 230200Z AUTO 07010KT 9999 // NCD 29/M06 Q1018

Zeit: 11:57 (02:27 UTC)

Prognose

Neuester Wetterbericht von vor 3 Stunden und 15 Minuten, um 23:12 UTC
Gültige Prognose vom 23 um 00 UTC bis 23 um 24 UTC
Wind 8 kt aus Ost/Nordost
Sichtweite 10 km oder mehr
keine Wolken unter 1500 m und keine Kumulonimbus oder Gewitterwolken

TAF: YBAS 222312Z 2300/2324 07008KT CAVOK

Wetterbeobachtungen und Prognosen von mehr als 4000 Flughäfen (METAR und TAF Bericht).

Die verfügbaren Stationen werden durch gelbe und rote Markierungen auf der Karte dargestellt.

Führen Sie die Maus auf sie, um den Namen der Station zu sehen.

Darauf klicken, um die Beobachtung von Wetterbeobachtungen und Prognosen zu sehen.

Um die Karte zu ändern : klicken Sie auf den grünen Tasten mit einem schwarzen Kreuz Zum Vergrößern, auf den grünen Button mit einem Gedankenstrich zu verkleinern, oder auf die grünen Pfeile für benachbarte Karten.


METAR-TAF: